sensor_id;sensor_type;location;lat;lon;timestamp;P1;durP1;ratioP1;P2;durP2;ratioP2
2173;SDS011;1093;51.424;11.764;2023-08-08T00:00:33;6.67;;;4.47;;
2173;SDS011;1093;51.424;11.764;2023-08-08T00:03:00;6.43;;;3.07;;
2173;SDS011;1093;51.424;11.764;2023-08-08T00:05:27;6.47;;;3.53;;
2173;SDS011;1093;51.424;11.764;2023-08-08T00:07:55;3.97;;;3.23;;
2173;SDS011;1093;51.424;11.764;2023-08-08T00:10:22;6.23;;;3.40;;
2173;SDS011;1093;51.424;11.764;2023-08-08T00:12:48;4.80;;;3.17;;
2173;SDS011;1093;51.424;11.764;2023-08-08T00:15:15;8.80;;;3.33;;
2173;SDS011;1093;51.424;11.764;2023-08-08T00:17:42;4.60;;;2.57;;
2173;SDS011;1093;51.424;11.764;2023-08-08T00:20:09;6.33;;;3.43;;
2173;SDS011;1093;51.424;11.764;2023-08-08T00:22:37;3.37;;;3.07;;
2173;SDS011;1093;51.424;11.764;2023-08-08T00:25:05;4.97;;;3.60;;
2173;SDS011;1093;51.424;11.764;2023-08-08T00:27:33;5.90;;;3.17;;
2173;SDS011;1093;51.424;11.764;2023-08-08T00:30:00;11.13;;;3.80;;
2173;SDS011;1093;51.424;11.764;2023-08-08T00:32:27;6.00;;;3.60;;
2173;SDS011;1093;51.424;11.764;2023-08-08T00:34:54;4.73;;;3.40;;
2173;SDS011;1093;51.424;11.764;2023-08-08T00:37:21;7.77;;;3.37;;
2173;SDS011;1093;51.424;11.764;2023-08-08T00:39:47;5.47;;;3.23;;
2173;SDS011;1093;51.424;11.764;2023-08-08T00:42:14;4.73;;;3.33;;
2173;SDS011;1093;51.424;11.764;2023-08-08T00:44:41;4.47;;;3.00;;
2173;SDS011;1093;51.424;11.764;2023-08-08T00:47:08;5.23;;;3.30;;
2173;SDS011;1093;51.424;11.764;2023-08-08T00:49:35;4.67;;;2.93;;
2173;SDS011;1093;51.424;11.764;2023-08-08T00:52:04;12.53;;;5.63;;
2173;SDS011;1093;51.424;11.764;2023-08-08T00:54:32;9.73;;;3.63;;
2173;SDS011;1093;51.424;11.764;2023-08-08T00:56:59;3.70;;;3.10;;
2173;SDS011;1093;51.424;11.764;2023-08-08T00:59:27;6.27;;;3.40;;
2173;SDS011;1093;51.424;11.764;2023-08-08T01:01:54;7.03;;;3.03;;
2173;SDS011;1093;51.424;11.764;2023-08-08T01:04:21;3.73;;;2.83;;
2173;SDS011;1093;51.424;11.764;2023-08-08T01:06:54;5.10;;;3.27;;
2173;SDS011;1093;51.424;11.764;2023-08-08T01:09:28;6.70;;;4.03;;
2173;SDS011;1093;51.424;11.764;2023-08-08T01:11:58;6.90;;;3.80;;
2173;SDS011;1093;51.424;11.764;2023-08-08T01:14:28;4.63;;;3.43;;
2173;SDS011;1093;51.424;11.764;2023-08-08T01:16:56;4.83;;;3.10;;
2173;SDS011;1093;51.424;11.764;2023-08-08T01:19:25;5.23;;;3.20;;
2173;SDS011;1093;51.424;11.764;2023-08-08T01:21:55;5.37;;;2.90;;
2173;SDS011;1093;51.424;11.764;2023-08-08T01:24:28;3.80;;;2.93;;
2173;SDS011;1093;51.424;11.764;2023-08-08T01:26:58;4.70;;;2.80;;
2173;SDS011;1093;51.424;11.764;2023-08-08T01:29:25;6.80;;;3.23;;
2173;SDS011;1093;51.424;11.764;2023-08-08T01:31:52;4.50;;;3.10;;
2173;SDS011;1093;51.424;11.764;2023-08-08T01:34:19;5.37;;;3.47;;
2173;SDS011;1093;51.424;11.764;2023-08-08T01:36:48;4.67;;;3.33;;
2173;SDS011;1093;51.424;11.764;2023-08-08T01:39:21;7.67;;;3.83;;
2173;SDS011;1093;51.424;11.764;2023-08-08T01:41:52;4.43;;;3.30;;
2173;SDS011;1093;51.424;11.764;2023-08-08T01:44:20;3.27;;;2.70;;
2173;SDS011;1093;51.424;11.764;2023-08-08T01:46:48;4.83;;;3.40;;
2173;SDS011;1093;51.424;11.764;2023-08-08T01:49:15;6.73;;;3.23;;
2173;SDS011;1093;51.424;11.764;2023-08-08T01:51:42;5.23;;;3.33;;
2173;SDS011;1093;51.424;11.764;2023-08-08T01:54:08;5.17;;;3.20;;
2173;SDS011;1093;51.424;11.764;2023-08-08T01:56:35;9.07;;;3.20;;
2173;SDS011;1093;51.424;11.764;2023-08-08T01:59:03;4.97;;;3.17;;
2173;SDS011;1093;51.424;11.764;2023-08-08T02:01:30;6.73;;;3.53;;
2173;SDS011;1093;51.424;11.764;2023-08-08T02:03:57;3.60;;;3.17;;
2173;SDS011;1093;51.424;11.764;2023-08-08T02:06:24;4.83;;;3.03;;
2173;SDS011;1093;51.424;11.764;2023-08-08T02:08:50;4.73;;;3.00;;
2173;SDS011;1093;51.424;11.764;2023-08-08T02:11:17;4.50;;;3.60;;
2173;SDS011;1093;51.424;11.764;2023-08-08T02:13:44;5.77;;;3.50;;
2173;SDS011;1093;51.424;11.764;2023-08-08T02:16:12;4.20;;;3.20;;
2173;SDS011;1093;51.424;11.764;2023-08-08T02:18:39;7.30;;;3.93;;
2173;SDS011;1093;51.424;11.764;2023-08-08T02:21:06;11.53;;;3.83;;
2173;SDS011;1093;51.424;11.764;2023-08-08T02:23:33;3.43;;;3.03;;
2173;SDS011;1093;51.424;11.764;2023-08-08T02:26:00;3.50;;;3.10;;
2173;SDS011;1093;51.424;11.764;2023-08-08T02:28:27;7.63;;;3.20;;
2173;SDS011;1093;51.424;11.764;2023-08-08T02:30:54;5.63;;;3.60;;
2173;SDS011;1093;51.424;11.764;2023-08-08T02:33:22;6.13;;;3.30;;
2173;SDS011;1093;51.424;11.764;2023-08-08T02:35:49;11.63;;;3.80;;
2173;SDS011;1093;51.424;11.764;2023-08-08T02:38:16;8.43;;;3.23;;
2173;SDS011;1093;51.424;11.764;2023-08-08T02:40:43;5.43;;;2.67;;
2173;SDS011;1093;51.424;11.764;2023-08-08T02:43:10;5.37;;;3.10;;
2173;SDS011;1093;51.424;11.764;2023-08-08T02:45:37;5.67;;;3.63;;
2173;SDS011;1093;51.424;11.764;2023-08-08T02:48:04;4.47;;;2.80;;
2173;SDS011;1093;51.424;11.764;2023-08-08T02:50:33;4.60;;;3.30;;
2173;SDS011;1093;51.424;11.764;2023-08-08T02:52:59;5.90;;;3.60;;
2173;SDS011;1093;51.424;11.764;2023-08-08T02:55:26;4.40;;;3.90;;
2173;SDS011;1093;51.424;11.764;2023-08-08T02:57:53;3.57;;;3.10;;
2173;SDS011;1093;51.424;11.764;2023-08-08T03:00:20;4.47;;;2.73;;
2173;SDS011;1093;51.424;11.764;2023-08-08T03:02:47;4.30;;;3.20;;
2173;SDS011;1093;51.424;11.764;2023-08-08T03:05:14;4.07;;;3.23;;
2173;SDS011;1093;51.424;11.764;2023-08-08T03:07:42;5.97;;;4.10;;
2173;SDS011;1093;51.424;11.764;2023-08-08T03:10:09;3.40;;;3.20;;
2173;SDS011;1093;51.424;11.764;2023-08-08T03:12:36;5.53;;;3.63;;
2173;SDS011;1093;51.424;11.764;2023-08-08T03:15:04;8.57;;;3.37;;
2173;SDS011;1093;51.424;11.764;2023-08-08T03:17:32;4.03;;;3.10;;
2173;SDS011;1093;51.424;11.764;2023-08-08T03:20:00;4.13;;;3.53;;
2173;SDS011;1093;51.424;11.764;2023-08-08T03:22:30;4.00;;;3.10;;
2173;SDS011;1093;51.424;11.764;2023-08-08T03:24:58;5.70;;;2.90;;
2173;SDS011;1093;51.424;11.764;2023-08-08T03:27:25;9.90;;;3.60;;
2173;SDS011;1093;51.424;11.764;2023-08-08T03:29:52;5.07;;;2.70;;
2173;SDS011;1093;51.424;11.764;2023-08-08T03:32:19;5.90;;;4.00;;
2173;SDS011;1093;51.424;11.764;2023-08-08T03:34:46;4.73;;;3.70;;
2173;SDS011;1093;51.424;11.764;2023-08-08T03:37:12;4.63;;;3.43;;
2173;SDS011;1093;51.424;11.764;2023-08-08T03:39:39;5.23;;;3.93;;
2173;SDS011;1093;51.424;11.764;2023-08-08T03:42:08;5.07;;;3.57;;
2173;SDS011;1093;51.424;11.764;2023-08-08T03:44:35;5.23;;;3.40;;
2173;SDS011;1093;51.424;11.764;2023-08-08T03:47:02;4.73;;;4.10;;
2173;SDS011;1093;51.424;11.764;2023-08-08T03:49:28;5.07;;;3.53;;
2173;SDS011;1093;51.424;11.764;2023-08-08T03:51:55;4.53;;;4.13;;
2173;SDS011;1093;51.424;11.764;2023-08-08T03:54:22;4.37;;;3.80;;
2173;SDS011;1093;51.424;11.764;2023-08-08T03:56:49;6.87;;;2.93;;
2173;SDS011;1093;51.424;11.764;2023-08-08T03:59:17;8.37;;;4.10;;
2173;SDS011;1093;51.424;11.764;2023-08-08T04:01:44;5.63;;;3.80;;
2173;SDS011;1093;51.424;11.764;2023-08-08T04:04:10;9.00;;;5.80;;
2173;SDS011;1093;51.424;11.764;2023-08-08T04:06:37;3.13;;;2.83;;
2173;SDS011;1093;51.424;11.764;2023-08-08T04:09:04;5.40;;;3.47;;
2173;SDS011;1093;51.424;11.764;2023-08-08T04:11:31;10.90;;;4.10;;
2173;SDS011;1093;51.424;11.764;2023-08-08T04:14:00;5.00;;;3.30;;
2173;SDS011;1093;51.424;11.764;2023-08-08T04:16:28;5.27;;;3.03;;
2173;SDS011;1093;51.424;11.764;2023-08-08T04:18:56;6.23;;;4.00;;
2173;SDS011;1093;51.424;11.764;2023-08-08T04:21:24;3.00;;;2.67;;
2173;SDS011;1093;51.424;11.764;2023-08-08T04:23:53;8.93;;;3.93;;
2173;SDS011;1093;51.424;11.764;2023-08-08T04:26:20;5.00;;;3.67;;
2173;SDS011;1093;51.424;11.764;2023-08-08T04:28:47;4.27;;;3.27;;
2173;SDS011;1093;51.424;11.764;2023-08-08T04:31:14;3.37;;;3.03;;
2173;SDS011;1093;51.424;11.764;2023-08-08T04:33:42;5.30;;;3.43;;
2173;SDS011;1093;51.424;11.764;2023-08-08T04:36:09;5.10;;;3.53;;
2173;SDS011;1093;51.424;11.764;2023-08-08T04:38:36;4.33;;;2.70;;
2173;SDS011;1093;51.424;11.764;2023-08-08T04:41:02;6.10;;;2.80;;
2173;SDS011;1093;51.424;11.764;2023-08-08T04:43:29;4.77;;;3.37;;
2173;SDS011;1093;51.424;11.764;2023-08-08T04:45:56;7.10;;;3.30;;
2173;SDS011;1093;51.424;11.764;2023-08-08T04:48:23;5.00;;;3.47;;
2173;SDS011;1093;51.424;11.764;2023-08-08T04:50:51;4.70;;;2.90;;
2173;SDS011;1093;51.424;11.764;2023-08-08T04:53:18;4.30;;;2.80;;
2173;SDS011;1093;51.424;11.764;2023-08-08T04:55:45;3.27;;;2.97;;
2173;SDS011;1093;51.424;11.764;2023-08-08T04:58:12;4.10;;;2.87;;
2173;SDS011;1093;51.424;11.764;2023-08-08T05:00:39;3.63;;;2.43;;
2173;SDS011;1093;51.424;11.764;2023-08-08T05:03:06;3.57;;;3.10;;
2173;SDS011;1093;51.424;11.764;2023-08-08T05:05:32;5.53;;;2.90;;
2173;SDS011;1093;51.424;11.764;2023-08-08T05:08:00;3.50;;;3.17;;
2173;SDS011;1093;51.424;11.764;2023-08-08T05:10:27;10.17;;;3.00;;
2173;SDS011;1093;51.424;11.764;2023-08-08T05:12:54;4.73;;;3.07;;
2173;SDS011;1093;51.424;11.764;2023-08-08T05:15:21;4.20;;;3.30;;
2173;SDS011;1093;51.424;11.764;2023-08-08T05:17:48;4.87;;;2.83;;
2173;SDS011;1093;51.424;11.764;2023-08-08T05:20:16;3.10;;;2.80;;
2173;SDS011;1093;51.424;11.764;2023-08-08T05:22:43;4.50;;;2.70;;
2173;SDS011;1093;51.424;11.764;2023-08-08T05:25:11;5.67;;;2.50;;
2173;SDS011;1093;51.424;11.764;2023-08-08T05:27:38;7.93;;;3.00;;
2173;SDS011;1093;51.424;11.764;2023-08-08T05:30:05;4.23;;;3.13;;
2173;SDS011;1093;51.424;11.764;2023-08-08T05:32:33;3.90;;;2.90;;
2173;SDS011;1093;51.424;11.764;2023-08-08T05:35:00;3.00;;;2.80;;
2173;SDS011;1093;51.424;11.764;2023-08-08T05:37:29;3.67;;;3.00;;
2173;SDS011;1093;51.424;11.764;2023-08-08T05:39:56;3.83;;;2.90;;
2173;SDS011;1093;51.424;11.764;2023-08-08T05:42:24;5.00;;;2.90;;
2173;SDS011;1093;51.424;11.764;2023-08-08T05:44:51;5.07;;;2.93;;
2173;SDS011;1093;51.424;11.764;2023-08-08T05:47:18;4.33;;;2.40;;
2173;SDS011;1093;51.424;11.764;2023-08-08T05:49:44;12.40;;;3.20;;
2173;SDS011;1093;51.424;11.764;2023-08-08T05:52:11;5.40;;;2.87;;
2173;SDS011;1093;51.424;11.764;2023-08-08T05:54:38;4.10;;;3.00;;
2173;SDS011;1093;51.424;11.764;2023-08-08T05:57:05;4.03;;;2.60;;
2173;SDS011;1093;51.424;11.764;2023-08-08T05:59:34;3.30;;;2.17;;
2173;SDS011;1093;51.424;11.764;2023-08-08T06:02:01;3.20;;;2.43;;
2173;SDS011;1093;51.424;11.764;2023-08-08T06:04:28;3.10;;;2.57;;
2173;SDS011;1093;51.424;11.764;2023-08-08T06:06:54;4.97;;;2.67;;
2173;SDS011;1093;51.424;11.764;2023-08-08T06:09:21;4.93;;;3.00;;
2173;SDS011;1093;51.424;11.764;2023-08-08T06:11:48;5.00;;;2.60;;
2173;SDS011;1093;51.424;11.764;2023-08-08T06:14:15;4.47;;;2.80;;
2173;SDS011;1093;51.424;11.764;2023-08-08T06:16:43;5.90;;;2.97;;
2173;SDS011;1093;51.424;11.764;2023-08-08T06:19:11;2.83;;;2.53;;
2173;SDS011;1093;51.424;11.764;2023-08-08T06:21:40;4.83;;;2.77;;
2173;SDS011;1093;51.424;11.764;2023-08-08T06:24:06;3.23;;;2.60;;
2173;SDS011;1093;51.424;11.764;2023-08-08T06:26:33;5.33;;;2.77;;
2173;SDS011;1093;51.424;11.764;2023-08-08T06:29:00;3.63;;;2.27;;
2173;SDS011;1093;51.424;11.764;2023-08-08T06:31:27;3.70;;;1.97;;
2173;SDS011;1093;51.424;11.764;2023-08-08T06:33:55;6.73;;;4.53;;
2173;SDS011;1093;51.424;11.764;2023-08-08T06:36:22;2.97;;;2.33;;
2173;SDS011;1093;51.424;11.764;2023-08-08T06:38:49;3.10;;;2.07;;
2173;SDS011;1093;51.424;11.764;2023-08-08T06:41:15;6.83;;;2.50;;
2173;SDS011;1093;51.424;11.764;2023-08-08T06:43:42;3.33;;;2.23;;
2173;SDS011;1093;51.424;11.764;2023-08-08T06:46:09;3.00;;;1.80;;
2173;SDS011;1093;51.424;11.764;2023-08-08T06:48:36;3.20;;;2.43;;
2173;SDS011;1093;51.424;11.764;2023-08-08T06:51:04;4.50;;;2.37;;
2173;SDS011;1093;51.424;11.764;2023-08-08T06:53:31;3.47;;;1.80;;
2173;SDS011;1093;51.424;11.764;2023-08-08T06:55:58;2.60;;;2.17;;
2173;SDS011;1093;51.424;11.764;2023-08-08T06:58:24;2.00;;;1.80;;
2173;SDS011;1093;51.424;11.764;2023-08-08T07:00:51;2.40;;;2.10;;
2173;SDS011;1093;51.424;11.764;2023-08-08T07:03:18;3.70;;;1.77;;
2173;SDS011;1093;51.424;11.764;2023-08-08T07:05:45;3.10;;;2.13;;
2173;SDS011;1093;51.424;11.764;2023-08-08T07:08:14;2.57;;;2.20;;
2173;SDS011;1093;51.424;11.764;2023-08-08T07:10:41;2.47;;;2.27;;
2173;SDS011;1093;51.424;11.764;2023-08-08T07:13:09;5.30;;;2.73;;
2173;SDS011;1093;51.424;11.764;2023-08-08T07:15:36;4.50;;;2.90;;
2173;SDS011;1093;51.424;11.764;2023-08-08T07:18:03;2.70;;;2.20;;
2173;SDS011;1093;51.424;11.764;2023-08-08T07:20:30;5.53;;;2.63;;
2173;SDS011;1093;51.424;11.764;2023-08-08T07:22:57;4.03;;;2.63;;
2173;SDS011;1093;51.424;11.764;2023-08-08T07:25:26;2.63;;;2.40;;
2173;SDS011;1093;51.424;11.764;2023-08-08T07:27:53;3.50;;;2.40;;
2173;SDS011;1093;51.424;11.764;2023-08-08T07:30:20;6.73;;;2.60;;
2173;SDS011;1093;51.424;11.764;2023-08-08T07:32:47;3.40;;;3.10;;
2173;SDS011;1093;51.424;11.764;2023-08-08T07:35:14;4.07;;;2.70;;
2173;SDS011;1093;51.424;11.764;2023-08-08T07:37:42;3.00;;;2.63;;
2173;SDS011;1093;51.424;11.764;2023-08-08T07:40:15;4.73;;;2.30;;
2173;SDS011;1093;51.424;11.764;2023-08-08T07:42:44;3.30;;;2.17;;
2173;SDS011;1093;51.424;11.764;2023-08-08T07:45:11;4.30;;;2.20;;
2173;SDS011;1093;51.424;11.764;2023-08-08T07:47:38;4.47;;;2.50;;
2173;SDS011;1093;51.424;11.764;2023-08-08T07:50:06;6.60;;;3.00;;
2173;SDS011;1093;51.424;11.764;2023-08-08T07:52:34;3.00;;;2.47;;
2173;SDS011;1093;51.424;11.764;2023-08-08T07:55:01;3.83;;;2.70;;
2173;SDS011;1093;51.424;11.764;2023-08-08T07:57:28;3.37;;;2.60;;
2173;SDS011;1093;51.424;11.764;2023-08-08T07:59:58;6.10;;;2.93;;
2173;SDS011;1093;51.424;11.764;2023-08-08T08:02:30;2.90;;;2.70;;
2173;SDS011;1093;51.424;11.764;2023-08-08T08:04:57;3.50;;;3.20;;
2173;SDS011;1093;51.424;11.764;2023-08-08T08:07:24;4.00;;;2.73;;
2173;SDS011;1093;51.424;11.764;2023-08-08T08:09:51;5.57;;;2.57;;
2173;SDS011;1093;51.424;11.764;2023-08-08T08:12:17;2.83;;;2.63;;
2173;SDS011;1093;51.424;11.764;2023-08-08T08:14:45;5.50;;;2.70;;
2173;SDS011;1093;51.424;11.764;2023-08-08T08:17:13;2.43;;;2.20;;
2173;SDS011;1093;51.424;11.764;2023-08-08T08:19:40;3.10;;;2.60;;
2173;SDS011;1093;51.424;11.764;2023-08-08T08:22:07;3.13;;;2.70;;
2173;SDS011;1093;51.424;11.764;2023-08-08T08:24:34;3.60;;;3.00;;
2173;SDS011;1093;51.424;11.764;2023-08-08T08:27:00;3.23;;;2.67;;
2173;SDS011;1093;51.424;11.764;2023-08-08T08:29:27;6.93;;;2.60;;
2173;SDS011;1093;51.424;11.764;2023-08-08T08:31:56;3.70;;;3.23;;
2173;SDS011;1093;51.424;11.764;2023-08-08T08:34:24;5.87;;;3.40;;
2173;SDS011;1093;51.424;11.764;2023-08-08T08:36:51;6.37;;;3.10;;
2173;SDS011;1093;51.424;11.764;2023-08-08T08:39:17;4.03;;;3.30;;
2173;SDS011;1093;51.424;11.764;2023-08-08T08:41:44;4.27;;;3.23;;
2173;SDS011;1093;51.424;11.764;2023-08-08T08:44:15;6.83;;;2.77;;
2173;SDS011;1093;51.424;11.764;2023-08-08T08:46:42;6.97;;;3.50;;
2173;SDS011;1093;51.424;11.764;2023-08-08T08:49:14;5.20;;;2.60;;
2173;SDS011;1093;51.424;11.764;2023-08-08T08:51:44;2.87;;;2.67;;
2173;SDS011;1093;51.424;11.764;2023-08-08T08:54:12;4.33;;;3.00;;
2173;SDS011;1093;51.424;11.764;2023-08-08T08:59:08;3.70;;;2.83;;
2173;SDS011;1093;51.424;11.764;2023-08-08T09:01:34;4.30;;;2.70;;
2173;SDS011;1093;51.424;11.764;2023-08-08T09:04:02;3.53;;;2.70;;
2173;SDS011;1093;51.424;11.764;2023-08-08T09:06:31;6.40;;;3.13;;
2173;SDS011;1093;51.424;11.764;2023-08-08T09:09:00;5.03;;;2.90;;
2173;SDS011;1093;51.424;11.764;2023-08-08T09:11:29;7.33;;;3.90;;
2173;SDS011;1093;51.424;11.764;2023-08-08T09:13:56;4.83;;;2.80;;
2173;SDS011;1093;51.424;11.764;2023-08-08T09:16:23;3.90;;;2.60;;
2173;SDS011;1093;51.424;11.764;2023-08-08T09:18:50;3.93;;;3.03;;
2173;SDS011;1093;51.424;11.764;2023-08-08T09:21:18;4.93;;;2.70;;
2173;SDS011;1093;51.424;11.764;2023-08-08T09:23:45;9.43;;;3.43;;
2173;SDS011;1093;51.424;11.764;2023-08-08T09:26:14;3.07;;;2.47;;
2173;SDS011;1093;51.424;11.764;2023-08-08T09:28:41;4.20;;;2.93;;
2173;SDS011;1093;51.424;11.764;2023-08-08T09:31:08;10.57;;;3.07;;
2173;SDS011;1093;51.424;11.764;2023-08-08T09:33:38;3.47;;;2.07;;
2173;SDS011;1093;51.424;11.764;2023-08-08T09:36:06;3.60;;;2.53;;
2173;SDS011;1093;51.424;11.764;2023-08-08T09:38:33;6.20;;;2.53;;
2173;SDS011;1093;51.424;11.764;2023-08-08T09:41:00;3.07;;;2.43;;
2173;SDS011;1093;51.424;11.764;2023-08-08T09:43:28;3.07;;;2.77;;
2173;SDS011;1093;51.424;11.764;2023-08-08T09:45:55;3.77;;;2.47;;
2173;SDS011;1093;51.424;11.764;2023-08-08T09:48:23;4.27;;;2.27;;
2173;SDS011;1093;51.424;11.764;2023-08-08T09:50:55;4.40;;;2.90;;
2173;SDS011;1093;51.424;11.764;2023-08-08T09:53:24;5.07;;;2.47;;
2173;SDS011;1093;51.424;11.764;2023-08-08T09:55:52;5.40;;;2.50;;
2173;SDS011;1093;51.424;11.764;2023-08-08T09:58:20;3.67;;;2.40;;
2173;SDS011;1093;51.424;11.764;2023-08-08T10:00:49;3.30;;;2.57;;
2173;SDS011;1093;51.424;11.764;2023-08-08T10:03:16;5.33;;;2.00;;
2173;SDS011;1093;51.424;11.764;2023-08-08T10:05:44;2.83;;;2.47;;
2173;SDS011;1093;51.424;11.764;2023-08-08T10:08:11;3.13;;;2.63;;
2173;SDS011;1093;51.424;11.764;2023-08-08T10:10:41;14.73;;;3.50;;
2173;SDS011;1093;51.424;11.764;2023-08-08T10:13:18;5.43;;;2.90;;
2173;SDS011;1093;51.424;11.764;2023-08-08T10:15:45;3.70;;;2.90;;
2173;SDS011;1093;51.424;11.764;2023-08-08T10:18:13;5.93;;;2.60;;
2173;SDS011;1093;51.424;11.764;2023-08-08T10:20:42;3.53;;;2.50;;
2173;SDS011;1093;51.424;11.764;2023-08-08T10:23:09;4.27;;;3.43;;
2173;SDS011;1093;51.424;11.764;2023-08-08T10:25:36;4.40;;;3.57;;
2173;SDS011;1093;51.424;11.764;2023-08-08T10:28:04;4.70;;;2.83;;
2173;SDS011;1093;51.424;11.764;2023-08-08T10:30:41;5.30;;;2.93;;
2173;SDS011;1093;51.424;11.764;2023-08-08T10:33:16;3.03;;;2.70;;
2173;SDS011;1093;51.424;11.764;2023-08-08T10:35:50;6.30;;;2.97;;
2173;SDS011;1093;51.424;11.764;2023-08-08T10:38:21;3.87;;;3.13;;
2173;SDS011;1093;51.424;11.764;2023-08-08T10:40:52;3.20;;;2.53;;
2173;SDS011;1093;51.424;11.764;2023-08-08T10:43:25;3.43;;;2.63;;
2173;SDS011;1093;51.424;11.764;2023-08-08T10:45:53;3.03;;;2.60;;
2173;SDS011;1093;51.424;11.764;2023-08-08T10:48:24;6.30;;;3.30;;
2173;SDS011;1093;51.424;11.764;2023-08-08T10:50:53;5.67;;;3.10;;
2173;SDS011;1093;51.424;11.764;2023-08-08T10:53:22;5.90;;;3.10;;
2173;SDS011;1093;51.424;11.764;2023-08-08T10:55:56;5.07;;;3.10;;
2173;SDS011;1093;51.424;11.764;2023-08-08T10:58:33;5.40;;;3.00;;
2173;SDS011;1093;51.424;11.764;2023-08-08T11:01:01;3.80;;;3.50;;
2173;SDS011;1093;51.424;11.764;2023-08-08T11:03:32;3.13;;;2.83;;
2173;SDS011;1093;51.424;11.764;2023-08-08T11:06:00;3.43;;;3.13;;
2173;SDS011;1093;51.424;11.764;2023-08-08T11:08:29;4.40;;;2.53;;
2173;SDS011;1093;51.424;11.764;2023-08-08T11:10:57;4.97;;;3.33;;
2173;SDS011;1093;51.424;11.764;2023-08-08T11:13:23;6.17;;;3.30;;
2173;SDS011;1093;51.424;11.764;2023-08-08T11:15:51;4.10;;;3.33;;
2173;SDS011;1093;51.424;11.764;2023-08-08T11:18:18;3.80;;;3.40;;
2173;SDS011;1093;51.424;11.764;2023-08-08T11:20:46;4.10;;;3.20;;
2173;SDS011;1093;51.424;11.764;2023-08-08T11:23:13;3.80;;;2.73;;
2173;SDS011;1093;51.424;11.764;2023-08-08T11:25:41;3.23;;;2.93;;
2173;SDS011;1093;51.424;11.764;2023-08-08T11:28:09;4.77;;;3.77;;
2173;SDS011;1093;51.424;11.764;2023-08-08T11:30:37;4.07;;;3.40;;
2173;SDS011;1093;51.424;11.764;2023-08-08T11:33:05;7.67;;;4.23;;
2173;SDS011;1093;51.424;11.764;2023-08-08T11:35:32;4.30;;;3.90;;
2173;SDS011;1093;51.424;11.764;2023-08-08T11:38:02;5.10;;;3.87;;
2173;SDS011;1093;51.424;11.764;2023-08-08T11:40:30;7.70;;;4.20;;
2173;SDS011;1093;51.424;11.764;2023-08-08T11:42:58;3.70;;;3.40;;
2173;SDS011;1093;51.424;11.764;2023-08-08T11:45:25;4.17;;;3.47;;
2173;SDS011;1093;51.424;11.764;2023-08-08T11:47:53;8.13;;;4.40;;
2173;SDS011;1093;51.424;11.764;2023-08-08T11:50:21;4.23;;;3.30;;
2173;SDS011;1093;51.424;11.764;2023-08-08T11:52:50;4.13;;;3.03;;
2173;SDS011;1093;51.424;11.764;2023-08-08T11:55:20;3.00;;;2.60;;
2173;SDS011;1093;51.424;11.764;2023-08-08T11:57:49;6.13;;;3.20;;
2173;SDS011;1093;51.424;11.764;2023-08-08T12:00:18;3.27;;;2.70;;
2173;SDS011;1093;51.424;11.764;2023-08-08T12:02:45;4.57;;;2.63;;
2173;SDS011;1093;51.424;11.764;2023-08-08T12:05:13;6.73;;;3.13;;
2173;SDS011;1093;51.424;11.764;2023-08-08T12:07:42;4.50;;;3.10;;
2173;SDS011;1093;51.424;11.764;2023-08-08T12:10:13;10.43;;;3.20;;
2173;SDS011;1093;51.424;11.764;2023-08-08T12:12:43;4.93;;;3.10;;
2173;SDS011;1093;51.424;11.764;2023-08-08T12:15:10;3.37;;;2.80;;
2173;SDS011;1093;51.424;11.764;2023-08-08T12:17:38;8.67;;;3.40;;
2173;SDS011;1093;51.424;11.764;2023-08-08T12:20:05;4.50;;;2.80;;
2173;SDS011;1093;51.424;11.764;2023-08-08T12:22:34;3.73;;;2.93;;
2173;SDS011;1093;51.424;11.764;2023-08-08T12:25:02;5.37;;;3.17;;
2173;SDS011;1093;51.424;11.764;2023-08-08T12:27:29;5.30;;;3.53;;
2173;SDS011;1093;51.424;11.764;2023-08-08T12:29:58;6.03;;;4.00;;
2173;SDS011;1093;51.424;11.764;2023-08-08T12:32:25;14.67;;;4.70;;
2173;SDS011;1093;51.424;11.764;2023-08-08T12:34:58;4.57;;;3.40;;
2173;SDS011;1093;51.424;11.764;2023-08-08T12:37:25;3.50;;;3.20;;
2173;SDS011;1093;51.424;11.764;2023-08-08T12:39:52;8.57;;;3.70;;
2173;SDS011;1093;51.424;11.764;2023-08-08T12:42:19;4.50;;;3.10;;
2173;SDS011;1093;51.424;11.764;2023-08-08T12:44:46;5.23;;;2.93;;
2173;SDS011;1093;51.424;11.764;2023-08-08T12:47:17;6.70;;;3.53;;
2173;SDS011;1093;51.424;11.764;2023-08-08T12:49:45;4.93;;;3.50;;
2173;SDS011;1093;51.424;11.764;2023-08-08T12:52:12;4.93;;;3.80;;
2173;SDS011;1093;51.424;11.764;2023-08-08T12:54:39;4.63;;;4.10;;
2173;SDS011;1093;51.424;11.764;2023-08-08T12:57:06;4.20;;;3.80;;
2173;SDS011;1093;51.424;11.764;2023-08-08T12:59:34;3.60;;;3.23;;
2173;SDS011;1093;51.424;11.764;2023-08-08T13:02:00;4.80;;;3.57;;
2173;SDS011;1093;51.424;11.764;2023-08-08T13:04:29;5.47;;;4.13;;
2173;SDS011;1093;51.424;11.764;2023-08-08T13:06:55;4.70;;;3.53;;
2173;SDS011;1093;51.424;11.764;2023-08-08T13:09:22;5.90;;;3.77;;
2173;SDS011;1093;51.424;11.764;2023-08-08T13:11:49;7.00;;;3.60;;
2173;SDS011;1093;51.424;11.764;2023-08-08T13:14:16;7.20;;;4.73;;
2173;SDS011;1093;51.424;11.764;2023-08-08T13:16:43;3.70;;;3.40;;
2173;SDS011;1093;51.424;11.764;2023-08-08T13:19:10;6.10;;;3.50;;
2173;SDS011;1093;51.424;11.764;2023-08-08T13:21:39;6.33;;;3.53;;
2173;SDS011;1093;51.424;11.764;2023-08-08T13:24:06;6.30;;;4.20;;
2173;SDS011;1093;51.424;11.764;2023-08-08T13:26:34;7.80;;;3.90;;
2173;SDS011;1093;51.424;11.764;2023-08-08T13:29:01;6.80;;;4.10;;
2173;SDS011;1093;51.424;11.764;2023-08-08T13:31:28;7.60;;;3.90;;
2173;SDS011;1093;51.424;11.764;2023-08-08T13:33:55;5.77;;;4.07;;
2173;SDS011;1093;51.424;11.764;2023-08-08T13:36:22;5.93;;;4.20;;
2173;SDS011;1093;51.424;11.764;2023-08-08T13:38:50;6.00;;;4.73;;
2173;SDS011;1093;51.424;11.764;2023-08-08T13:41:17;5.80;;;4.87;;
2173;SDS011;1093;51.424;11.764;2023-08-08T13:43:44;6.47;;;4.70;;
2173;SDS011;1093;51.424;11.764;2023-08-08T13:46:11;8.50;;;5.00;;
2173;SDS011;1093;51.424;11.764;2023-08-08T13:48:38;6.80;;;4.60;;
2173;SDS011;1093;51.424;11.764;2023-08-08T13:51:05;5.13;;;4.60;;
2173;SDS011;1093;51.424;11.764;2023-08-08T13:53:32;5.23;;;4.47;;
2173;SDS011;1093;51.424;11.764;2023-08-08T13:56:01;4.87;;;4.43;;
2173;SDS011;1093;51.424;11.764;2023-08-08T13:58:28;7.40;;;4.80;;
2173;SDS011;1093;51.424;11.764;2023-08-08T14:00:54;5.40;;;4.90;;
2173;SDS011;1093;51.424;11.764;2023-08-08T14:03:21;8.00;;;5.23;;
2173;SDS011;1093;51.424;11.764;2023-08-08T14:05:49;4.23;;;3.83;;
2173;SDS011;1093;51.424;11.764;2023-08-08T14:08:17;4.50;;;4.10;;
2173;SDS011;1093;51.424;11.764;2023-08-08T14:10:45;6.67;;;4.30;;
2173;SDS011;1093;51.424;11.764;2023-08-08T14:13:13;6.40;;;4.60;;
2173;SDS011;1093;51.424;11.764;2023-08-08T14:15:40;4.80;;;4.40;;
2173;SDS011;1093;51.424;11.764;2023-08-08T14:18:07;8.33;;;4.40;;
2173;SDS011;1093;51.424;11.764;2023-08-08T14:20:34;6.53;;;4.07;;
2173;SDS011;1093;51.424;11.764;2023-08-08T14:23:01;6.50;;;4.10;;
2173;SDS011;1093;51.424;11.764;2023-08-08T14:25:28;5.00;;;3.50;;
2173;SDS011;1093;51.424;11.764;2023-08-08T14:27:55;6.37;;;4.10;;
2173;SDS011;1093;51.424;11.764;2023-08-08T14:30:25;4.00;;;3.57;;
2173;SDS011;1093;51.424;11.764;2023-08-08T14:32:52;4.50;;;4.10;;
2173;SDS011;1093;51.424;11.764;2023-08-08T14:35:19;7.77;;;4.23;;
2173;SDS011;1093;51.424;11.764;2023-08-08T14:37:46;10.90;;;5.27;;
2173;SDS011;1093;51.424;11.764;2023-08-08T14:40:13;6.47;;;5.00;;
2173;SDS011;1093;51.424;11.764;2023-08-08T14:42:40;7.80;;;4.97;;
2173;SDS011;1093;51.424;11.764;2023-08-08T14:45:07;5.13;;;4.67;;
2173;SDS011;1093;51.424;11.764;2023-08-08T14:47:36;8.40;;;4.83;;
2173;SDS011;1093;51.424;11.764;2023-08-08T14:50:03;6.63;;;4.10;;
2173;SDS011;1093;51.424;11.764;2023-08-08T14:52:31;5.53;;;4.00;;
2173;SDS011;1093;51.424;11.764;2023-08-08T14:54:57;3.23;;;2.70;;
2173;SDS011;1093;51.424;11.764;2023-08-08T14:57:25;2.80;;;2.60;;
2173;SDS011;1093;51.424;11.764;2023-08-08T14:59:51;5.63;;;2.73;;
2173;SDS011;1093;51.424;11.764;2023-08-08T15:02:18;3.53;;;2.87;;
2173;SDS011;1093;51.424;11.764;2023-08-08T15:04:46;7.37;;;3.57;;